Condiciones actuales en los principales Aeropuertos de España-Datos Metar

 

LEAL - Alicante
Actualización: 17/08/2017 11:30
Few Clouds
Few Clouds
 Viento del varies
Viento: varies 7 km/h
Temperatura: 30°C
Heat Index: 33°C
Rocío: 22°C
Humedad: 62%
Barómetro: 1019 hPa
Nubosidad: Few Clouds
Visibilidad: 10 km
Cloud details: Few Clouds 305 m
2017/08/17 09:30 LEAL 170930Z VRB04KT 9999 FEW010 30/22 Q1019 NOSIG
LEAB - Albacete
Actualización: 17/08/2017 11:00
Few Clouds
Few Clouds
 Viento del SSE
Viento: SSE 15 km/h
Temperatura: 25°C
Rocío: 20°C
Humedad: 74%
Barómetro: 1022 hPa
Nubosidad: Few Clouds
Visibilidad: 9 km
Cloud details: Few Clouds 427 m
2017/08/17 09:00 LEAB 170900Z 15008KT 120V190 9000 FEW014 25/20 Q1022 NOSIG
LEAM - Almería
Actualización: 17/08/2017 11:30
Few Clouds
Few Clouds
 Viento del ESE
Viento: ESE 19 km/h
Temperatura: 31°C
Heat Index: 35°C
Rocío: 22°C
Humedad: 59%
Barómetro: 1018 hPa
Nubosidad: Few Clouds
Visibilidad: 10 km
Cloud details: Few Clouds 610 m
2017/08/17 09:30 LEAM 170930Z 12010KT 080V160 9999 FEW020 31/22 Q1018
 
LEAS - Asturias/Aviles
Actualización: 17/08/2017 11:30
Mostly Cloudy
Mostly Cloudy
 Viento del varies
Viento: varies 2 km/h
Temperatura: 22°C
Rocío: 18°C
Humedad: 78%
Barómetro: 1022 hPa
Nubosidad: Mostly Cloudy
Visibilidad: 10 km
Cloud details: Mostly Cloudy 701 m
2017/08/17 09:30 LEAS 170930Z VRB01KT 9999 BKN023 22/18 Q1022 NOSIG
LEBZ - Badajoz/Talavera la Real
Actualización: 17/08/2017 11:00
Smoke, Parcialmente nublado
Smoke, Parcialmente nublado
 Viento del O
Viento: O 6 km/h
Temperatura: 25°C
Rocío: 15°C
Humedad: 54%
Barómetro: 1019 hPa
Resumen: Smoke
Nubosidad: Partly Cloudy
Visibilidad: 5 km
2017/08/17 09:00 LEBZ 170900Z 26003KT 230V310 5000 FU NSC 25/15 Q1019
LEBL - Barcelona
Actualización: 17/08/2017 11:30
Despejado
Despejado
 Viento del SSO
Viento: SSO 13 km/h
Temperatura: 29°C
Heat Index: 29°C
Rocío: 18°C
Humedad: 51%
Barómetro: 1019 hPa
Resumen: Despejado
Visibilidad: greater than 10 km
2017/08/17 09:30 LEBL 170930Z 20007KT CAVOK 29/18 Q1019 NOSIG
 
LEBB - Bilbao
Actualización: 17/08/2017 11:30
Despejado
Despejado
 Viento del calm
Viento: Calma
Temperatura: 24°C
Rocío: 16°C
Humedad: 61%
Barómetro: 1022 hPa
Resumen: Despejado
Visibilidad: greater than 10 km
2017/08/17 09:30 LEBB 170930Z 00000KT CAVOK 24/16 Q1022 NOSIG
LEBG - Burgos/Villafría
Actualización: 17/08/2017 11:30
Despejado
Despejado
 Viento del NNE
Viento: NNE 4 km/h
Temperatura: 26°C
Rocío: 9°C
Humedad: 34%
Barómetro: 1023 hPa
Resumen: Despejado
Visibilidad: greater than 10 km
2017/08/17 09:30 LEBG 170930Z 02002KT CAVOK 26/09 Q1023
LEBA - Córdoba
Actualización: 17/08/2017 11:30
Despejado
Despejado
 Viento del E
Viento: E 6 km/h
Temperatura: 31°C
Rocío: 5°C
Humedad: 19%
Barómetro: 1017 hPa
Resumen: Despejado
Visibilidad: greater than 10 km
2017/08/17 09:30 LEBA 170930Z 10003KT 040V130 CAVOK 31/05 Q1017
 
LEGE - Gerona
Actualización: 17/08/2017 11:30
Despejado
Despejado
 Viento del SSO
Viento: SSO 2 km/h
Temperatura: 29°C
Heat Index: 29°C
Rocío: 16°C
Humedad: 45%
Barómetro: 1019 hPa
Resumen: Despejado
Visibilidad: greater than 10 km
2017/08/17 09:30 LEGE 170930Z 20001KT CAVOK 29/16 Q1019
LEGR - Granada
Actualización: 17/08/2017 11:30
Despejado
Despejado
 Viento del varies
Viento: varies 2 km/h
Temperatura: 29°C
Rocío: 7°C
Humedad: 25%
Barómetro: 1020 hPa
Resumen: Despejado
Visibilidad: greater than 10 km
2017/08/17 09:30 LEGR 170930Z VRB01KT CAVOK 29/07 Q1020
GCHI - Hierro
Actualización: 17/08/2017 11:30
Few Clouds
Few Clouds
 Viento del NNE
Viento: NNE 17 km/h
Temperatura: 25°C
Rocío: 21°C
Humedad: 79%
Barómetro: 1018 hPa
Nubosidad: Few Clouds
Visibilidad: 10 km
Cloud details: Few Clouds 427 m
2017/08/17 09:30 GCHI 170930Z 03009KT 340V060 9999 FEW014 25/21 Q1018
 
LEIB - Ibiza
Actualización: 17/08/2017 11:30
Partly Cloudy
Partly Cloudy
 Viento del ESE
Viento: ESE 13 km/h
Temperatura: 29°C
Heat Index: 33°C
Rocío: 24°C
Humedad: 74%
Barómetro: 1019 hPa
Nubosidad: Partly Cloudy
Visibilidad: 10 km
Cloud details: Partly Cloudy 457 m
2017/08/17 09:30 LEIB 170930Z 11007KT 070V150 9999 SCT015 29/24 Q1019 NOSIG
LEJR - Jerez de la Frontera
Actualización: 17/08/2017 11:30
Despejado
Despejado
 Viento del SSE
Viento: SSE 6 km/h
Temperatura: 29°C
Heat Index: 29°C
Rocío: 18°C
Humedad: 51%
Barómetro: 1017 hPa
Resumen: Despejado
Visibilidad: greater than 10 km
2017/08/17 09:30 LEJR 170930Z 16003KT 080V200 CAVOK 29/18 Q1017
LECO - A Coruña
Actualización: 17/08/2017 11:30
Mostly Cloudy
Mostly Cloudy
 Viento del S
Viento: S 9 km/h
Temperatura: 23°C
Rocío: 16°C
Humedad: 65%
Barómetro: 1022 hPa
Nubosidad: Mostly Cloudy
Visibilidad: 10 km
Cloud details: Mostly Cloudy 975 m
2017/08/17 09:30 LECO 170930Z 17005KT 120V200 9999 BKN032 23/16 Q1022 NOSIG
 
GCLA - La Palma
Actualización: 17/08/2017 11:30
Despejado
Despejado
 Viento del NNE
Viento: NNE 20 km/h
Temperatura: 25°C
Rocío: 20°C
Humedad: 74%
Barómetro: 1019 hPa
Resumen: Despejado
Visibilidad: greater than 10 km
2017/08/17 09:30 GCLA 170930Z 02011KT 350V060 CAVOK 25/20 Q1019
GCRR - Lanzarote
Actualización: 17/08/2017 11:30
Despejado
Despejado
 Viento del N
Viento: N 28 km/h
Temperatura: 29°C
Heat Index: 29°C
Rocío: 16°C
Humedad: 45%
Barómetro: 1016 hPa
Resumen: Despejado
Visibilidad: greater than 10 km
2017/08/17 09:30 GCRR 170930Z 01015KT 350V050 CAVOK 29/16 Q1016
GCLP - Las Palmas
Actualización: 17/08/2017 11:30
Despejado
Despejado
 Viento del NNE
Viento: NNE 33 km/h
Temperatura: 28°C
Heat Index: 29°C
Rocío: 18°C
Humedad: 55%
Barómetro: 1017 hPa
Resumen: Despejado
Visibilidad: greater than 10 km
2017/08/17 09:30 GCLP 170930Z 02018KT CAVOK 28/18 Q1017 NOSIG
 
LELN - León
Actualización: 17/08/2017 11:00
Despejado
Despejado
 Viento del calm
Viento: Calma
Temperatura: 23°C
Rocío: 12°C
Humedad: 50%
Barómetro: 1024 hPa
Resumen: Despejado
Visibilidad: greater than 10 km
2017/08/17 09:00 LELN 170900Z 00000KT CAVOK 23/12 Q1024
LELO - Logroño
Actualización: 17/08/2017 11:00
Despejado
Despejado
 Viento del OSO
Viento: OSO 9 km/h
Temperatura: 23°C
Rocío: 10°C
Humedad: 44%
Barómetro: 1022 hPa
Resumen: Despejado
Visibilidad: greater than 10 km
2017/08/17 09:00 LELO 170900Z 25005KT 210V300 CAVOK 23/10 Q1022
LECV - Madrid/Colmenar
Actualización: 17/08/2017 11:00
Despejado
Despejado
 Viento del varies
Viento: varies 4 km/h
Temperatura: 27°C
Rocío: 11°C
Humedad: 37%
Barómetro: 1023 hPa
Resumen: Despejado
Visibilidad: greater than 10 km
2017/08/17 09:00 LECV 170900Z VRB02KT CAVOK 27/11 Q1023
 
LEMD - Madrid/Barajas
Actualización: 17/08/2017 11:30
Despejado
Despejado
 Viento del NO
Viento: NO 4 km/h
Temperatura: 29°C
Heat Index: 29°C
Rocío: 15°C
Humedad: 43%
Barómetro: 1021 hPa
Resumen: Despejado
Visibilidad: greater than 10 km
2017/08/17 09:30 LEMD 170930Z 32002KT CAVOK 29/15 Q1021 NOSIG
LEVS - Madrid/Cuatro Vientos
Actualización: 17/08/2017 11:30
Despejado
Despejado
 Viento del varies
Viento: varies 4 km/h
Temperatura: 29°C
Heat Index: 28°C
Rocío: 14°C
Humedad: 40%
Barómetro: 1022 hPa
Resumen: Despejado
Visibilidad: greater than 10 km
2017/08/17 09:30 LEVS 170930Z VRB02KT CAVOK 29/14 Q1022
LEGT - Madrid/Getafe
Actualización: 17/08/2017 11:00
Despejado
Despejado
 Viento del ENE
Viento: ENE 6 km/h
Temperatura: 27°C
Heat Index: 28°C
Rocío: 16°C
Humedad: 51%
Barómetro: 1021 hPa
Resumen: Despejado
Visibilidad: greater than 10 km
2017/08/17 09:00 LEGT 170900Z 06003KT CAVOK 27/16 Q1021
 
LETO - Madrid/Torrejón
Actualización: 17/08/2017 11:00
Despejado
Despejado
 Viento del varies
Viento: varies 2 km/h
Temperatura: 29°C
Heat Index: 29°C
Rocío: 15°C
Humedad: 43%
Barómetro: 1021 hPa
Resumen: Despejado
Visibilidad: greater than 10 km
2017/08/17 09:00 LETO 170900Z VRB01KT CAVOK 29/15 Q1021 NOSIG
LEMG - Málaga
Actualización: 17/08/2017 11:30
Few Clouds
Few Clouds
 Viento del ESE
Viento: ESE 13 km/h
Temperatura: 27°C
Heat Index: 29°C
Rocío: 21°C
Humedad: 70%
Barómetro: 1019 hPa
Nubosidad: Few Clouds
Visibilidad: 9 km
Cloud details: Few Clouds 610 m
2017/08/17 09:30 LEMG 170930Z 12007KT 090V150 9000 FEW020 27/21 Q1019 NOSIG
GEML - Melilla
Actualización: 17/08/2017 11:30
Mostly Cloudy
Mostly Cloudy
 Viento del E
Viento: E 9 km/h
Temperatura: 27°C
Heat Index: 29°C
Rocío: 22°C
Humedad: 74%
Barómetro: 1019 hPa
Nubosidad: Mostly Cloudy
Visibilidad: 10 km
Cloud details: Mostly Cloudy 396 m
2017/08/17 09:30 GEML 170930Z 10005KT 050V160 9999 BKN013 27/22 Q1019
 
LEMH - Mahón
Actualización: 17/08/2017 11:30
Despejado
Despejado
 Viento del NE
Viento: NE 15 km/h
Temperatura: 29°C
Heat Index: 29°C
Rocío: 18°C
Humedad: 51%
Barómetro: 1019 hPa
Resumen: Despejado
Visibilidad: greater than 10 km
2017/08/17 09:30 LEMH 170930Z 05008KT 010V080 CAVOK 29/18 Q1019
LEMO - Morón de La Frontera
Actualización: 17/08/2017 11:00
Despejado
Despejado
 Viento del varies
Viento: varies 4 km/h
Temperatura: 29°C
Rocío: 9°C
Humedad: 29%
Barómetro: 1017 hPa
Resumen: Despejado
Visibilidad: greater than 10 km
2017/08/17 09:00 LEMO 170900Z VRB02KT CAVOK 29/09 Q1017 NOSIG
LERI - Murcia/Alcantarilla
Actualización: 17/08/2017 11:00
Few Clouds
Few Clouds
 Viento del SSO
Viento: SSO 4 km/h
Temperatura: 29°C
Heat Index: 31°C
Rocío: 21°C
Humedad: 62%
Barómetro: 1019 hPa
Nubosidad: Few Clouds
Visibilidad: 10 km
Cloud details: Few Clouds 762 m
2017/08/17 09:00 LERI 170900Z 21002KT 9999 FEW025 29/21 Q1019 NOSIG
 
LELC - Murcia/San Javier
Actualización: 17/08/2017 11:00
Partly Cloudy
Partly Cloudy
 Viento del varies
Viento: varies 4 km/h
Temperatura: 28°C
Heat Index: 31°C
Rocío: 23°C
Humedad: 74%
Barómetro: 1019 hPa
Nubosidad: Partly Cloudy
Visibilidad: 10 km
Cloud details: Partly Cloudy 366 m
2017/08/17 09:00 LELC 170900Z VRB02KT 9999 SCT012 28/23 Q1019 NOSIG
LEPA - Palma de Mallorca
Actualización: 17/08/2017 11:30
Despejado
Despejado
 Viento del ENE
Viento: ENE 9 km/h
Temperatura: 32°C
Heat Index: 34°C
Rocío: 20°C
Humedad: 49%
Barómetro: 1018 hPa
Resumen: Despejado
Visibilidad: greater than 10 km
2017/08/17 09:30 LEPA 170930Z 06005KT 010V160 CAVOK 32/20 Q1018 NOSIG
LEPP - Pamplona
Actualización: 17/08/2017 11:30
Despejado
Despejado
 Viento del NNO
Viento: NNO 2 km/h
Temperatura: 23°C
Rocío: 8°C
Humedad: 38%
Barómetro: 1023 hPa
Resumen: Despejado
Visibilidad: greater than 10 km
2017/08/17 09:30 LEPP 170930Z 33001KT CAVOK 23/08 Q1023
 
LERS - Reus
Actualización: 17/08/2017 11:30
Despejado
Despejado
 Viento del varies
Viento: varies 7 km/h
Temperatura: 31°C
Heat Index: 31°C
Rocío: 16°C
Humedad: 40%
Barómetro: 1019 hPa
Resumen: Despejado
Visibilidad: greater than 10 km
2017/08/17 09:30 LERS 170930Z VRB04KT CAVOK 31/16 Q1019
LERT - Rota
Actualización: 17/08/2017 11:00
Partly Cloudy
Partly Cloudy
 Viento del varies
Viento: varies 2 km/h
Temperatura: 27°C
Heat Index: 29°C
Rocío: 20°C
Humedad: 66%
Barómetro: 1017 hPa
Nubosidad: Partly Cloudy
Visibilidad: 9 km
2017/08/17 09:00 LERT 170900Z VRB01KT 9000 NSC 27/20 Q1017 NOSIG
LELL - Sabadell
Actualización: 17/08/2017 11:30
Despejado
Despejado
 Viento del OSO
Viento: OSO 11 km/h
Temperatura: 31°C
Heat Index: 31°C
Rocío: 16°C
Humedad: 40%
Barómetro: 1019 hPa
Resumen: Despejado
Visibilidad: greater than 10 km
2017/08/17 09:30 LELL 170930Z 25006KT 170V310 CAVOK 31/16 Q1019
 
LESA - Salamanca
Actualización: 17/08/2017 11:30
Despejado
Despejado
 Viento del varies
Viento: varies 2 km/h
Temperatura: 23°C
Rocío: 12°C
Humedad: 50%
Barómetro: 1023 hPa
Resumen: Despejado
Visibilidad: greater than 10 km
2017/08/17 09:30 LESA 170930Z VRB01KT CAVOK 23/12 Q1023
LESO - San Sebastián
Actualización: 17/08/2017 11:30
Despejado
Despejado
 Viento del calm
Viento: Calma
Temperatura: 25°C
Rocío: 15°C
Humedad: 54%
Barómetro: 1022 hPa
Resumen: Despejado
Visibilidad: greater than 10 km
2017/08/17 09:30 LESO 170930Z 00000KT CAVOK 25/15 Q1022
LEXJ - Santander
Actualización: 17/08/2017 11:30
Few Clouds
Few Clouds
 Viento del varies
Viento: varies 4 km/h
Temperatura: 23°C
Rocío: 17°C
Humedad: 69%
Barómetro: 1021 hPa
Nubosidad: Few Clouds
Visibilidad: 10 km
Cloud details: Few Clouds 610 m
2017/08/17 09:30 LEXJ 170930Z VRB02KT 9999 FEW020 23/17 Q1021
 
LEPA - Palma de Mallorca
Actualización: 17/08/2017 11:30
Despejado
Despejado
 Viento del ENE
Viento: ENE 9 km/h
Temperatura: 32°C
Heat Index: 34°C
Rocío: 20°C
Humedad: 49%
Barómetro: 1018 hPa
Resumen: Despejado
Visibilidad: greater than 10 km
2017/08/17 09:30 LEPA 170930Z 06005KT 010V160 CAVOK 32/20 Q1018 NOSIG
LEPP - Pamplona
Actualización: 17/08/2017 11:30
Despejado
Despejado
 Viento del NNO
Viento: NNO 2 km/h
Temperatura: 23°C
Rocío: 8°C
Humedad: 38%
Barómetro: 1023 hPa
Resumen: Despejado
Visibilidad: greater than 10 km
2017/08/17 09:30 LEPP 170930Z 33001KT CAVOK 23/08 Q1023
LEST - Santiago de Compostela
Actualización: 17/08/2017 11:30
Mostly Cloudy
Mostly Cloudy
 Viento del varies
Viento: varies 4 km/h
Temperatura: 21°C
Rocío: 16°C
Humedad: 73%
Barómetro: 1023 hPa
Nubosidad: Mostly Cloudy
Visibilidad: 10 km
Cloud details: Mostly Cloudy 518 m
2017/08/17 09:30 LEST 170930Z VRB02KT 9999 BKN017 21/16 Q1023 NOSIG
 
LEZL - Sevilla
Actualización: 17/08/2017 11:30
Despejado
Despejado
 Viento del calm
Viento: Calma
Temperatura: 30°C
Rocío: 11°C
Humedad: 31%
Barómetro: 1017 hPa
Resumen: Despejado
Visibilidad: greater than 10 km
2017/08/17 09:30 LEZL 170930Z 00000KT CAVOK 30/11 Q1017 NOSIG
GCXO - Tenerife
Actualización: 17/08/2017 11:30
Despejado
Despejado
 Viento del ESE
Viento: ESE 19 km/h
Temperatura: 28°C
Rocío: 7°C
Humedad: 26%
Barómetro: 1021 hPa
Resumen: Despejado
Visibilidad: greater than 10 km
2017/08/17 09:30 GCXO 170930Z 12010KT 080V160 CAVOK 28/07 Q1021 NOSIG
GCTS - Tenerife-Sur
Actualización: 17/08/2017 11:30
Despejado
Despejado
 Viento del E
Viento: E 41 km/h
Temperatura: 33°C
Rocío: 8°C
Humedad: 21%
Barómetro: 1016 hPa
Resumen: Despejado
Visibilidad: greater than 10 km
2017/08/17 09:30 GCTS 170930Z 08022KT CAVOK 33/08 Q1016 NOSIG
 
LEVC - Valencia
Actualización: 17/08/2017 11:30
Few Clouds
Few Clouds
 Viento del varies
Viento: varies 4 km/h
Temperatura: 29°C
Heat Index: 31°C
Rocío: 21°C
Humedad: 62%
Barómetro: 1019 hPa
Nubosidad: Few Clouds
Visibilidad: 10 km
Cloud details: Few Clouds 762 m
2017/08/17 09:30 LEVC 170930Z VRB02KT 9999 FEW025 29/21 Q1019 NOSIG
LEVD - Valladolid
Actualización: 17/08/2017 11:30
Despejado
Despejado
 Viento del calm
Viento: Calma
Temperatura: 25°C
Rocío: 10°C
Humedad: 39%
Barómetro: 1023 hPa
Resumen: Despejado
Visibilidad: greater than 10 km
2017/08/17 09:30 LEVD 170930Z 00000KT CAVOK 25/10 Q1023
LEVX - Vigo
Actualización: 17/08/2017 11:30
Few Clouds
Few Clouds
 Viento del varies
Viento: varies 2 km/h
Temperatura: 24°C
Rocío: 17°C
Humedad: 65%
Barómetro: 1023 hPa
Nubosidad: Few Clouds
Visibilidad: 10 km
Cloud details: Few Clouds 610 m
2017/08/17 09:30 LEVX 170930Z VRB01KT 9999 FEW020 24/17 Q1023 NOSIG
 
LEVT - Vitoria
Actualización: 17/08/2017 11:30
Despejado
Despejado
 Viento del ENE
Viento: ENE 7 km/h
Temperatura: 23°C
Rocío: 11°C
Humedad: 47%
Barómetro: 1023 hPa
Resumen: Despejado
Visibilidad: greater than 10 km
2017/08/17 09:30 LEVT 170930Z 06004KT 350V120 CAVOK 23/11 Q1023
LEZG - Zaragoza
Actualización: 17/08/2017 11:30
Despejado
Despejado
 Viento del ONO
Viento: ONO 15 km/h
Temperatura: 27°C
Rocío: 7°C
Humedad: 28%
Barómetro: 1021 hPa
Resumen: Despejado
Visibilidad: greater than 10 km
2017/08/17 09:30 LEZG 170930Z 29008KT 260V340 CAVOK 27/07 Q1021

La estación de MeteoMurcia.com, publica sus datos en los siguientes proyectos:

Meteoclimatic www.awekas.at

W3Counter
Web Analytics